sensor_id;sensor_type;location;lat;lon;timestamp;P1;durP1;ratioP1;P2;durP2;ratioP2
57047;SDS011;42934;54.294;18.598;2024-03-07T00:00:37;21.38;;;10.77;;
57047;SDS011;42934;54.294;18.598;2024-03-07T00:03:27;21.85;;;11.07;;
57047;SDS011;42934;54.294;18.598;2024-03-07T00:05:56;21.77;;;10.65;;
57047;SDS011;42934;54.294;18.598;2024-03-07T00:08:27;20.52;;;10.65;;
57047;SDS011;42934;54.294;18.598;2024-03-07T00:10:57;24.63;;;11.18;;
57047;SDS011;42934;54.294;18.598;2024-03-07T00:13:26;21.02;;;10.40;;
57047;SDS011;42934;54.294;18.598;2024-03-07T00:15:56;20.00;;;10.75;;
57047;SDS011;42934;54.294;18.598;2024-03-07T00:18:26;22.05;;;11.57;;
57047;SDS011;42934;54.294;18.598;2024-03-07T00:20:55;21.73;;;10.85;;
57047;SDS011;42934;54.294;18.598;2024-03-07T00:23:24;23.85;;;11.73;;
57047;SDS011;42934;54.294;18.598;2024-03-07T00:25:56;23.10;;;11.52;;
57047;SDS011;42934;54.294;18.598;2024-03-07T00:28:25;18.83;;;10.68;;
57047;SDS011;42934;54.294;18.598;2024-03-07T00:30:59;25.85;;;11.07;;
57047;SDS011;42934;54.294;18.598;2024-03-07T00:33:30;23.33;;;11.30;;
57047;SDS011;42934;54.294;18.598;2024-03-07T00:36:19;18.88;;;10.05;;
57047;SDS011;42934;54.294;18.598;2024-03-07T00:38:50;21.08;;;10.98;;
57047;SDS011;42934;54.294;18.598;2024-03-07T00:41:19;22.23;;;11.38;;
57047;SDS011;42934;54.294;18.598;2024-03-07T00:43:49;24.98;;;11.65;;
57047;SDS011;42934;54.294;18.598;2024-03-07T00:46:18;27.38;;;12.88;;
57047;SDS011;42934;54.294;18.598;2024-03-07T00:48:48;29.10;;;12.55;;
57047;SDS011;42934;54.294;18.598;2024-03-07T00:51:17;31.50;;;13.25;;
57047;SDS011;42934;54.294;18.598;2024-03-07T00:53:46;31.00;;;13.30;;
57047;SDS011;42934;54.294;18.598;2024-03-07T00:56:17;33.97;;;13.37;;
57047;SDS011;42934;54.294;18.598;2024-03-07T00:58:48;34.80;;;13.85;;
57047;SDS011;42934;54.294;18.598;2024-03-07T01:03:47;25.50;;;11.82;;
57047;SDS011;42934;54.294;18.598;2024-03-07T01:06:16;24.85;;;11.25;;
57047;SDS011;42934;54.294;18.598;2024-03-07T01:08:46;23.00;;;10.43;;
57047;SDS011;42934;54.294;18.598;2024-03-07T01:11:17;21.75;;;11.07;;
57047;SDS011;42934;54.294;18.598;2024-03-07T01:13:47;22.13;;;10.82;;
57047;SDS011;42934;54.294;18.598;2024-03-07T01:16:16;22.83;;;11.77;;
57047;SDS011;42934;54.294;18.598;2024-03-07T01:18:45;24.17;;;10.95;;
57047;SDS011;42934;54.294;18.598;2024-03-07T01:21:16;19.92;;;10.48;;
57047;SDS011;42934;54.294;18.598;2024-03-07T01:23:45;23.00;;;10.98;;
57047;SDS011;42934;54.294;18.598;2024-03-07T01:26:17;20.65;;;10.00;;
57047;SDS011;42934;54.294;18.598;2024-03-07T01:28:46;19.80;;;9.95;;
57047;SDS011;42934;54.294;18.598;2024-03-07T01:31:15;18.83;;;9.63;;
57047;SDS011;42934;54.294;18.598;2024-03-07T01:33:45;20.27;;;10.40;;
57047;SDS011;42934;54.294;18.598;2024-03-07T01:36:14;20.75;;;11.05;;
57047;SDS011;42934;54.294;18.598;2024-03-07T01:38:43;20.85;;;11.02;;
57047;SDS011;42934;54.294;18.598;2024-03-07T01:41:12;26.45;;;12.77;;
57047;SDS011;42934;54.294;18.598;2024-03-07T01:43:43;23.07;;;12.97;;
57047;SDS011;42934;54.294;18.598;2024-03-07T01:46:13;22.83;;;12.35;;
57047;SDS011;42934;54.294;18.598;2024-03-07T01:48:42;22.60;;;11.65;;
57047;SDS011;42934;54.294;18.598;2024-03-07T01:51:13;22.17;;;11.23;;
57047;SDS011;42934;54.294;18.598;2024-03-07T01:53:43;17.85;;;10.00;;
57047;SDS011;42934;54.294;18.598;2024-03-07T01:56:13;20.73;;;10.45;;
57047;SDS011;42934;54.294;18.598;2024-03-07T01:58:46;21.65;;;10.57;;
57047;SDS011;42934;54.294;18.598;2024-03-07T02:01:16;19.13;;;10.00;;
57047;SDS011;42934;54.294;18.598;2024-03-07T02:03:45;23.10;;;11.18;;
57047;SDS011;42934;54.294;18.598;2024-03-07T02:06:14;20.00;;;10.70;;
57047;SDS011;42934;54.294;18.598;2024-03-07T02:08:43;25.77;;;12.18;;
57047;SDS011;42934;54.294;18.598;2024-03-07T02:11:15;28.50;;;12.50;;
57047;SDS011;42934;54.294;18.598;2024-03-07T02:13:45;24.55;;;12.40;;
57047;SDS011;42934;54.294;18.598;2024-03-07T02:16:14;20.92;;;11.88;;
57047;SDS011;42934;54.294;18.598;2024-03-07T02:18:43;24.35;;;11.02;;
57047;SDS011;42934;54.294;18.598;2024-03-07T02:21:14;18.25;;;10.48;;
57047;SDS011;42934;54.294;18.598;2024-03-07T02:23:44;24.42;;;10.90;;
57047;SDS011;42934;54.294;18.598;2024-03-07T02:26:13;23.02;;;11.57;;
57047;SDS011;42934;54.294;18.598;2024-03-07T02:28:46;22.50;;;11.70;;
57047;SDS011;42934;54.294;18.598;2024-03-07T02:31:15;21.02;;;11.45;;
57047;SDS011;42934;54.294;18.598;2024-03-07T02:33:46;24.00;;;11.75;;
57047;SDS011;42934;54.294;18.598;2024-03-07T02:36:17;22.15;;;11.48;;
57047;SDS011;42934;54.294;18.598;2024-03-07T02:38:46;20.05;;;10.90;;
57047;SDS011;42934;54.294;18.598;2024-03-07T02:41:16;26.02;;;11.80;;
57047;SDS011;42934;54.294;18.598;2024-03-07T02:43:45;21.17;;;11.90;;
57047;SDS011;42934;54.294;18.598;2024-03-07T02:46:15;24.95;;;12.15;;
57047;SDS011;42934;54.294;18.598;2024-03-07T02:48:44;25.27;;;12.57;;
57047;SDS011;42934;54.294;18.598;2024-03-07T02:51:13;25.00;;;12.43;;
57047;SDS011;42934;54.294;18.598;2024-03-07T02:53:43;26.02;;;12.90;;
57047;SDS011;42934;54.294;18.598;2024-03-07T02:56:13;22.42;;;11.65;;
57047;SDS011;42934;54.294;18.598;2024-03-07T02:58:42;23.38;;;12.40;;
57047;SDS011;42934;54.294;18.598;2024-03-07T03:01:11;23.77;;;12.25;;
57047;SDS011;42934;54.294;18.598;2024-03-07T03:03:41;21.98;;;12.25;;
57047;SDS011;42934;54.294;18.598;2024-03-07T03:06:11;31.85;;;14.68;;
57047;SDS011;42934;54.294;18.598;2024-03-07T03:08:40;32.10;;;14.93;;
57047;SDS011;42934;54.294;18.598;2024-03-07T03:11:10;27.88;;;13.15;;
57047;SDS011;42934;54.294;18.598;2024-03-07T03:13:41;23.05;;;12.70;;
57047;SDS011;42934;54.294;18.598;2024-03-07T03:16:10;21.83;;;12.30;;
57047;SDS011;42934;54.294;18.598;2024-03-07T03:18:39;24.35;;;12.65;;
57047;SDS011;42934;54.294;18.598;2024-03-07T03:21:08;23.13;;;11.27;;
57047;SDS011;42934;54.294;18.598;2024-03-07T03:23:38;27.38;;;13.88;;
57047;SDS011;42934;54.294;18.598;2024-03-07T03:26:07;31.38;;;15.82;;
57047;SDS011;42934;54.294;18.598;2024-03-07T03:28:38;24.37;;;12.47;;
57047;SDS011;42934;54.294;18.598;2024-03-07T03:31:08;24.17;;;12.68;;
57047;SDS011;42934;54.294;18.598;2024-03-07T03:33:40;21.80;;;11.75;;
57047;SDS011;42934;54.294;18.598;2024-03-07T03:36:10;21.07;;;11.70;;
57047;SDS011;42934;54.294;18.598;2024-03-07T03:38:39;20.85;;;10.85;;
57047;SDS011;42934;54.294;18.598;2024-03-07T03:41:08;22.30;;;10.85;;
57047;SDS011;42934;54.294;18.598;2024-03-07T03:43:39;20.30;;;11.13;;
57047;SDS011;42934;54.294;18.598;2024-03-07T03:46:09;35.03;;;11.85;;
57047;SDS011;42934;54.294;18.598;2024-03-07T03:51:08;21.20;;;10.57;;
57047;SDS011;42934;54.294;18.598;2024-03-07T03:53:39;20.08;;;10.15;;
57047;SDS011;42934;54.294;18.598;2024-03-07T03:56:09;21.63;;;11.18;;
57047;SDS011;42934;54.294;18.598;2024-03-07T03:58:41;21.70;;;10.70;;
57047;SDS011;42934;54.294;18.598;2024-03-07T04:01:10;22.20;;;10.80;;
57047;SDS011;42934;54.294;18.598;2024-03-07T04:03:41;22.85;;;10.48;;
57047;SDS011;42934;54.294;18.598;2024-03-07T04:06:14;19.10;;;10.57;;
57047;SDS011;42934;54.294;18.598;2024-03-07T04:08:43;20.88;;;11.07;;
57047;SDS011;42934;54.294;18.598;2024-03-07T04:11:12;18.75;;;10.63;;
57047;SDS011;42934;54.294;18.598;2024-03-07T04:13:43;20.60;;;11.10;;
57047;SDS011;42934;54.294;18.598;2024-03-07T04:16:14;19.17;;;10.07;;
57047;SDS011;42934;54.294;18.598;2024-03-07T04:18:43;19.00;;;11.07;;
57047;SDS011;42934;54.294;18.598;2024-03-07T04:21:13;19.73;;;10.60;;
57047;SDS011;42934;54.294;18.598;2024-03-07T04:23:42;23.40;;;10.20;;
57047;SDS011;42934;54.294;18.598;2024-03-07T04:26:13;16.90;;;10.10;;
57047;SDS011;42934;54.294;18.598;2024-03-07T04:28:44;19.97;;;10.77;;
57047;SDS011;42934;54.294;18.598;2024-03-07T04:31:15;18.45;;;10.35;;
57047;SDS011;42934;54.294;18.598;2024-03-07T04:33:44;19.20;;;9.48;;
57047;SDS011;42934;54.294;18.598;2024-03-07T04:36:13;19.95;;;10.30;;
57047;SDS011;42934;54.294;18.598;2024-03-07T04:38:43;20.75;;;10.05;;
57047;SDS011;42934;54.294;18.598;2024-03-07T04:41:13;17.88;;;9.40;;
57047;SDS011;42934;54.294;18.598;2024-03-07T04:43:43;19.55;;;10.48;;
57047;SDS011;42934;54.294;18.598;2024-03-07T04:46:13;22.50;;;10.05;;
57047;SDS011;42934;54.294;18.598;2024-03-07T04:48:45;20.95;;;10.23;;
57047;SDS011;42934;54.294;18.598;2024-03-07T04:51:14;19.23;;;9.77;;
57047;SDS011;42934;54.294;18.598;2024-03-07T04:53:43;21.15;;;9.52;;
57047;SDS011;42934;54.294;18.598;2024-03-07T04:56:14;20.50;;;9.43;;
57047;SDS011;42934;54.294;18.598;2024-03-07T04:58:44;18.02;;;9.60;;
57047;SDS011;42934;54.294;18.598;2024-03-07T05:01:16;19.33;;;9.18;;
57047;SDS011;42934;54.294;18.598;2024-03-07T05:03:46;16.73;;;9.52;;
57047;SDS011;42934;54.294;18.598;2024-03-07T05:06:15;16.33;;;9.48;;
57047;SDS011;42934;54.294;18.598;2024-03-07T05:08:45;16.45;;;9.00;;
57047;SDS011;42934;54.294;18.598;2024-03-07T05:11:15;18.90;;;9.65;;
57047;SDS011;42934;54.294;18.598;2024-03-07T05:13:45;18.97;;;9.37;;
57047;SDS011;42934;54.294;18.598;2024-03-07T05:16:15;18.20;;;9.80;;
57047;SDS011;42934;54.294;18.598;2024-03-07T05:18:46;21.90;;;9.30;;
57047;SDS011;42934;54.294;18.598;2024-03-07T05:21:17;17.33;;;9.30;;
57047;SDS011;42934;54.294;18.598;2024-03-07T05:24:04;18.35;;;9.20;;
57047;SDS011;42934;54.294;18.598;2024-03-07T05:26:35;17.02;;;8.82;;
57047;SDS011;42934;54.294;18.598;2024-03-07T05:29:09;15.93;;;9.00;;
57047;SDS011;42934;54.294;18.598;2024-03-07T05:31:38;19.30;;;9.07;;
57047;SDS011;42934;54.294;18.598;2024-03-07T05:34:13;15.38;;;8.73;;
57047;SDS011;42934;54.294;18.598;2024-03-07T05:36:46;22.23;;;8.93;;
57047;SDS011;42934;54.294;18.598;2024-03-07T05:39:15;16.02;;;7.97;;
57047;SDS011;42934;54.294;18.598;2024-03-07T05:41:46;16.45;;;8.63;;
57047;SDS011;42934;54.294;18.598;2024-03-07T05:44:16;18.17;;;8.77;;
57047;SDS011;42934;54.294;18.598;2024-03-07T05:46:46;15.55;;;8.45;;
57047;SDS011;42934;54.294;18.598;2024-03-07T05:49:17;15.02;;;9.25;;
57047;SDS011;42934;54.294;18.598;2024-03-07T05:51:47;21.20;;;10.00;;
57047;SDS011;42934;54.294;18.598;2024-03-07T05:54:16;26.20;;;9.43;;
57047;SDS011;42934;54.294;18.598;2024-03-07T05:56:45;22.00;;;9.15;;
57047;SDS011;42934;54.294;18.598;2024-03-07T06:04:17;15.85;;;8.52;;
57047;SDS011;42934;54.294;18.598;2024-03-07T06:06:47;19.20;;;8.82;;
57047;SDS011;42934;54.294;18.598;2024-03-07T06:09:16;18.23;;;9.52;;
57047;SDS011;42934;54.294;18.598;2024-03-07T06:11:49;18.27;;;9.55;;
57047;SDS011;42934;54.294;18.598;2024-03-07T06:14:19;19.88;;;9.68;;
57047;SDS011;42934;54.294;18.598;2024-03-07T06:16:51;18.52;;;9.98;;
57047;SDS011;42934;54.294;18.598;2024-03-07T06:19:20;25.00;;;11.02;;
57047;SDS011;42934;54.294;18.598;2024-03-07T06:21:49;31.77;;;12.00;;
57047;SDS011;42934;54.294;18.598;2024-03-07T06:24:19;46.30;;;14.40;;
57047;SDS011;42934;54.294;18.598;2024-03-07T06:29:28;42.22;;;14.30;;
57047;SDS011;42934;54.294;18.598;2024-03-07T06:31:58;29.17;;;11.68;;
57047;SDS011;42934;54.294;18.598;2024-03-07T06:34:27;31.42;;;12.57;;
57047;SDS011;42934;54.294;18.598;2024-03-07T06:36:58;49.80;;;15.90;;
57047;SDS011;42934;54.294;18.598;2024-03-07T06:39:29;66.30;;;17.55;;
57047;SDS011;42934;54.294;18.598;2024-03-07T06:41:58;65.82;;;17.48;;
57047;SDS011;42934;54.294;18.598;2024-03-07T06:44:30;49.97;;;15.63;;
57047;SDS011;42934;54.294;18.598;2024-03-07T06:47:00;57.67;;;17.60;;
57047;SDS011;42934;54.294;18.598;2024-03-07T06:49:29;84.82;;;22.08;;
57047;SDS011;42934;54.294;18.598;2024-03-07T06:51:58;88.90;;;22.87;;
57047;SDS011;42934;54.294;18.598;2024-03-07T06:54:27;60.53;;;18.55;;
57047;SDS011;42934;54.294;18.598;2024-03-07T06:56:56;47.45;;;15.20;;
57047;SDS011;42934;54.294;18.598;2024-03-07T06:59:26;34.78;;;13.25;;
57047;SDS011;42934;54.294;18.598;2024-03-07T07:01:56;21.10;;;10.63;;
57047;SDS011;42934;54.294;18.598;2024-03-07T07:04:26;35.20;;;14.43;;
57047;SDS011;42934;54.294;18.598;2024-03-07T07:07:05;21.52;;;11.25;;
57047;SDS011;42934;54.294;18.598;2024-03-07T07:09:35;25.00;;;11.90;;
57047;SDS011;42934;54.294;18.598;2024-03-07T07:12:06;27.27;;;11.23;;
57047;SDS011;42934;54.294;18.598;2024-03-07T07:14:35;18.48;;;9.77;;
57047;SDS011;42934;54.294;18.598;2024-03-07T07:17:08;37.70;;;15.18;;
57047;SDS011;42934;54.294;18.598;2024-03-07T07:19:39;16.02;;;8.73;;
57047;SDS011;42934;54.294;18.598;2024-03-07T07:22:08;22.35;;;10.38;;
57047;SDS011;42934;54.294;18.598;2024-03-07T07:24:38;24.88;;;9.13;;
57047;SDS011;42934;54.294;18.598;2024-03-07T07:27:07;21.73;;;11.10;;
57047;SDS011;42934;54.294;18.598;2024-03-07T07:29:36;17.08;;;9.52;;
57047;SDS011;42934;54.294;18.598;2024-03-07T07:32:07;14.45;;;7.13;;
57047;SDS011;42934;54.294;18.598;2024-03-07T07:34:39;16.25;;;8.27;;
57047;SDS011;42934;54.294;18.598;2024-03-07T07:37:10;26.10;;;11.57;;
57047;SDS011;42934;54.294;18.598;2024-03-07T07:39:39;27.70;;;12.50;;
57047;SDS011;42934;54.294;18.598;2024-03-07T07:42:08;22.20;;;9.60;;
57047;SDS011;42934;54.294;18.598;2024-03-07T07:44:38;39.53;;;13.20;;
57047;SDS011;42934;54.294;18.598;2024-03-07T07:47:09;44.97;;;15.97;;
57047;SDS011;42934;54.294;18.598;2024-03-07T07:49:38;30.95;;;11.80;;
57047;SDS011;42934;54.294;18.598;2024-03-07T07:54:40;31.17;;;10.85;;
57047;SDS011;42934;54.294;18.598;2024-03-07T07:57:09;19.90;;;8.13;;
57047;SDS011;42934;54.294;18.598;2024-03-07T07:59:38;16.13;;;7.85;;
57047;SDS011;42934;54.294;18.598;2024-03-07T08:02:09;11.93;;;5.80;;
57047;SDS011;42934;54.294;18.598;2024-03-07T08:04:38;12.07;;;5.78;;
57047;SDS011;42934;54.294;18.598;2024-03-07T08:07:07;8.82;;;5.57;;
57047;SDS011;42934;54.294;18.598;2024-03-07T08:09:37;12.15;;;6.50;;
57047;SDS011;42934;54.294;18.598;2024-03-07T08:12:06;12.90;;;5.50;;
57047;SDS011;42934;54.294;18.598;2024-03-07T08:17:05;14.63;;;6.35;;
57047;SDS011;42934;54.294;18.598;2024-03-07T08:19:36;19.67;;;8.93;;
57047;SDS011;42934;54.294;18.598;2024-03-07T08:22:05;11.70;;;6.95;;
57047;SDS011;42934;54.294;18.598;2024-03-07T08:24:36;15.43;;;7.82;;
57047;SDS011;42934;54.294;18.598;2024-03-07T08:27:05;23.33;;;9.57;;
57047;SDS011;42934;54.294;18.598;2024-03-07T08:29:38;11.38;;;6.28;;
57047;SDS011;42934;54.294;18.598;2024-03-07T08:32:07;9.87;;;5.30;;
57047;SDS011;42934;54.294;18.598;2024-03-07T08:34:38;11.68;;;5.32;;
57047;SDS011;42934;54.294;18.598;2024-03-07T08:37:07;9.77;;;5.78;;
57047;SDS011;42934;54.294;18.598;2024-03-07T08:39:36;14.57;;;6.90;;
57047;SDS011;42934;54.294;18.598;2024-03-07T08:42:05;12.68;;;6.35;;
57047;SDS011;42934;54.294;18.598;2024-03-07T08:44:34;17.95;;;7.25;;
57047;SDS011;42934;54.294;18.598;2024-03-07T08:47:04;13.80;;;5.70;;
57047;SDS011;42934;54.294;18.598;2024-03-07T08:49:33;8.23;;;4.55;;
57047;SDS011;42934;54.294;18.598;2024-03-07T08:52:04;8.30;;;5.50;;
57047;SDS011;42934;54.294;18.598;2024-03-07T08:54:33;13.80;;;6.90;;
57047;SDS011;42934;54.294;18.598;2024-03-07T08:57:03;15.60;;;7.00;;
57047;SDS011;42934;54.294;18.598;2024-03-07T08:59:34;15.32;;;7.03;;
57047;SDS011;42934;54.294;18.598;2024-03-07T09:02:03;6.87;;;4.10;;
57047;SDS011;42934;54.294;18.598;2024-03-07T09:04:32;10.55;;;4.18;;
57047;SDS011;42934;54.294;18.598;2024-03-07T09:07:02;8.38;;;3.22;;
57047;SDS011;42934;54.294;18.598;2024-03-07T09:09:33;8.07;;;3.33;;
57047;SDS011;42934;54.294;18.598;2024-03-07T09:12:02;6.00;;;3.78;;
57047;SDS011;42934;54.294;18.598;2024-03-07T09:14:33;12.63;;;5.50;;
57047;SDS011;42934;54.294;18.598;2024-03-07T09:17:02;13.27;;;7.07;;
57047;SDS011;42934;54.294;18.598;2024-03-07T09:19:32;6.05;;;3.92;;
57047;SDS011;42934;54.294;18.598;2024-03-07T09:22:01;7.85;;;3.08;;
57047;SDS011;42934;54.294;18.598;2024-03-07T09:24:32;6.97;;;4.00;;
57047;SDS011;42934;54.294;18.598;2024-03-07T09:27:01;5.40;;;3.30;;
57047;SDS011;42934;54.294;18.598;2024-03-07T09:29:31;6.05;;;3.35;;
57047;SDS011;42934;54.294;18.598;2024-03-07T09:32:00;8.20;;;3.63;;
57047;SDS011;42934;54.294;18.598;2024-03-07T09:34:30;16.60;;;7.18;;
57047;SDS011;42934;54.294;18.598;2024-03-07T09:36:59;4.30;;;3.20;;
57047;SDS011;42934;54.294;18.598;2024-03-07T09:39:28;8.25;;;3.47;;
57047;SDS011;42934;54.294;18.598;2024-03-07T09:42:00;17.38;;;7.30;;
57047;SDS011;42934;54.294;18.598;2024-03-07T09:44:29;5.03;;;3.00;;
57047;SDS011;42934;54.294;18.598;2024-03-07T09:47:01;14.27;;;5.00;;
57047;SDS011;42934;54.294;18.598;2024-03-07T09:49:31;9.73;;;4.53;;
57047;SDS011;42934;54.294;18.598;2024-03-07T09:52:04;20.48;;;8.05;;
57047;SDS011;42934;54.294;18.598;2024-03-07T09:54:38;4.78;;;2.97;;
57047;SDS011;42934;54.294;18.598;2024-03-07T09:57:09;12.95;;;5.70;;
57047;SDS011;42934;54.294;18.598;2024-03-07T09:59:39;10.10;;;4.35;;
57047;SDS011;42934;54.294;18.598;2024-03-07T10:02:14;11.18;;;5.30;;
57047;SDS011;42934;54.294;18.598;2024-03-07T10:04:48;10.98;;;4.85;;
57047;SDS011;42934;54.294;18.598;2024-03-07T10:07:19;7.55;;;3.58;;
57047;SDS011;42934;54.294;18.598;2024-03-07T10:09:49;6.75;;;4.25;;
57047;SDS011;42934;54.294;18.598;2024-03-07T10:12:24;6.88;;;3.45;;
57047;SDS011;42934;54.294;18.598;2024-03-07T10:14:55;5.55;;;3.92;;
57047;SDS011;42934;54.294;18.598;2024-03-07T10:17:25;6.28;;;3.17;;
57047;SDS011;42934;54.294;18.598;2024-03-07T10:19:57;4.72;;;3.00;;
57047;SDS011;42934;54.294;18.598;2024-03-07T10:22:28;5.18;;;3.28;;
57047;SDS011;42934;54.294;18.598;2024-03-07T10:24:57;12.52;;;6.85;;
57047;SDS011;42934;54.294;18.598;2024-03-07T10:27:27;9.25;;;4.68;;
57047;SDS011;42934;54.294;18.598;2024-03-07T10:29:57;7.72;;;3.83;;
57047;SDS011;42934;54.294;18.598;2024-03-07T10:32:27;9.13;;;4.70;;
57047;SDS011;42934;54.294;18.598;2024-03-07T10:34:59;6.45;;;3.13;;
57047;SDS011;42934;54.294;18.598;2024-03-07T10:37:30;7.18;;;4.18;;
57047;SDS011;42934;54.294;18.598;2024-03-07T10:40:03;8.02;;;4.00;;
57047;SDS011;42934;54.294;18.598;2024-03-07T10:42:45;22.40;;;4.65;;
57047;SDS011;42934;54.294;18.598;2024-03-07T10:45:18;4.68;;;2.97;;
57047;SDS011;42934;54.294;18.598;2024-03-07T10:47:54;6.03;;;3.65;;
57047;SDS011;42934;54.294;18.598;2024-03-07T10:50:29;11.77;;;6.20;;
57047;SDS011;42934;54.294;18.598;2024-03-07T10:53:14;4.82;;;2.92;;
57047;SDS011;42934;54.294;18.598;2024-03-07T10:55:53;5.53;;;3.33;;
57047;SDS011;42934;54.294;18.598;2024-03-07T10:58:37;6.07;;;3.05;;
57047;SDS011;42934;54.294;18.598;2024-03-07T11:01:10;4.30;;;2.63;;
57047;SDS011;42934;54.294;18.598;2024-03-07T11:03:41;5.78;;;3.03;;
57047;SDS011;42934;54.294;18.598;2024-03-07T11:06:10;5.40;;;3.22;;
57047;SDS011;42934;54.294;18.598;2024-03-07T11:08:41;7.60;;;3.30;;
57047;SDS011;42934;54.294;18.598;2024-03-07T11:11:12;7.57;;;3.25;;
57047;SDS011;42934;54.294;18.598;2024-03-07T11:13:44;6.32;;;3.10;;
57047;SDS011;42934;54.294;18.598;2024-03-07T11:16:16;8.05;;;3.63;;
57047;SDS011;42934;54.294;18.598;2024-03-07T11:21:46;8.80;;;3.50;;
57047;SDS011;42934;54.294;18.598;2024-03-07T11:24:25;7.70;;;3.13;;
57047;SDS011;42934;54.294;18.598;2024-03-07T11:26:56;7.65;;;3.50;;
57047;SDS011;42934;54.294;18.598;2024-03-07T11:29:43;11.93;;;3.53;;
57047;SDS011;42934;54.294;18.598;2024-03-07T11:32:21;7.22;;;3.28;;
57047;SDS011;42934;54.294;18.598;2024-03-07T11:34:52;6.65;;;3.42;;
57047;SDS011;42934;54.294;18.598;2024-03-07T11:37:37;4.57;;;3.00;;
57047;SDS011;42934;54.294;18.598;2024-03-07T11:40:11;9.27;;;3.47;;
57047;SDS011;42934;54.294;18.598;2024-03-07T11:42:47;6.32;;;3.40;;
57047;SDS011;42934;54.294;18.598;2024-03-07T11:45:18;6.07;;;3.08;;
57047;SDS011;42934;54.294;18.598;2024-03-07T11:47:53;3.88;;;3.00;;
57047;SDS011;42934;54.294;18.598;2024-03-07T11:50:27;5.05;;;3.03;;
57047;SDS011;42934;54.294;18.598;2024-03-07T11:53:02;7.15;;;3.28;;
57047;SDS011;42934;54.294;18.598;2024-03-07T11:55:33;6.18;;;3.30;;
57047;SDS011;42934;54.294;18.598;2024-03-07T11:58:12;5.78;;;2.85;;
57047;SDS011;42934;54.294;18.598;2024-03-07T12:00:45;5.75;;;2.97;;
57047;SDS011;42934;54.294;18.598;2024-03-07T12:03:15;8.60;;;2.95;;
57047;SDS011;42934;54.294;18.598;2024-03-07T12:05:48;5.53;;;2.85;;
57047;SDS011;42934;54.294;18.598;2024-03-07T12:08:19;8.73;;;3.08;;
57047;SDS011;42934;54.294;18.598;2024-03-07T12:10:51;6.45;;;3.20;;
57047;SDS011;42934;54.294;18.598;2024-03-07T12:13:25;4.75;;;3.20;;
57047;SDS011;42934;54.294;18.598;2024-03-07T12:15:56;10.23;;;4.10;;
57047;SDS011;42934;54.294;18.598;2024-03-07T12:18:26;5.40;;;3.75;;
57047;SDS011;42934;54.294;18.598;2024-03-07T12:20:56;5.28;;;3.83;;
57047;SDS011;42934;54.294;18.598;2024-03-07T12:23:27;6.43;;;3.17;;
57047;SDS011;42934;54.294;18.598;2024-03-07T12:28:30;7.18;;;3.88;;
57047;SDS011;42934;54.294;18.598;2024-03-07T12:31:03;7.90;;;4.03;;
57047;SDS011;42934;54.294;18.598;2024-03-07T12:33:43;5.65;;;3.22;;
57047;SDS011;42934;54.294;18.598;2024-03-07T12:36:18;6.53;;;3.10;;
57047;SDS011;42934;54.294;18.598;2024-03-07T12:38:52;6.25;;;3.65;;
57047;SDS011;42934;54.294;18.598;2024-03-07T12:41:23;7.00;;;3.67;;
57047;SDS011;42934;54.294;18.598;2024-03-07T12:43:53;6.85;;;3.78;;
57047;SDS011;42934;54.294;18.598;2024-03-07T12:46:23;6.85;;;3.58;;
57047;SDS011;42934;54.294;18.598;2024-03-07T12:48:52;9.73;;;4.70;;
57047;SDS011;42934;54.294;18.598;2024-03-07T12:51:25;7.95;;;4.18;;
57047;SDS011;42934;54.294;18.598;2024-03-07T12:53:54;8.52;;;3.92;;
57047;SDS011;42934;54.294;18.598;2024-03-07T12:56:23;9.55;;;3.95;;
57047;SDS011;42934;54.294;18.598;2024-03-07T12:58:52;10.57;;;4.10;;
57047;SDS011;42934;54.294;18.598;2024-03-07T13:01:24;7.45;;;4.38;;
57047;SDS011;42934;54.294;18.598;2024-03-07T13:03:53;6.10;;;4.38;;
57047;SDS011;42934;54.294;18.598;2024-03-07T13:06:22;7.53;;;4.00;;
57047;SDS011;42934;54.294;18.598;2024-03-07T13:08:56;6.88;;;4.25;;
57047;SDS011;42934;54.294;18.598;2024-03-07T13:11:25;8.32;;;4.47;;
57047;SDS011;42934;54.294;18.598;2024-03-07T13:13:57;7.07;;;4.60;;
57047;SDS011;42934;54.294;18.598;2024-03-07T13:16:28;5.68;;;4.13;;
57047;SDS011;42934;54.294;18.598;2024-03-07T13:18:59;11.75;;;5.28;;
57047;SDS011;42934;54.294;18.598;2024-03-07T13:21:31;10.82;;;5.40;;
57047;SDS011;42934;54.294;18.598;2024-03-07T13:24:02;11.18;;;5.32;;
57047;SDS011;42934;54.294;18.598;2024-03-07T13:26:32;6.55;;;4.65;;
57047;SDS011;42934;54.294;18.598;2024-03-07T13:29:03;9.18;;;4.72;;
57047;SDS011;42934;54.294;18.598;2024-03-07T13:31:33;8.23;;;4.80;;
57047;SDS011;42934;54.294;18.598;2024-03-07T13:34:03;8.88;;;4.13;;
57047;SDS011;42934;54.294;18.598;2024-03-07T13:36:33;10.70;;;4.65;;
57047;SDS011;42934;54.294;18.598;2024-03-07T13:39:04;7.95;;;4.00;;
57047;SDS011;42934;54.294;18.598;2024-03-07T13:41:37;6.32;;;4.30;;
57047;SDS011;42934;54.294;18.598;2024-03-07T13:44:07;12.55;;;4.80;;
57047;SDS011;42934;54.294;18.598;2024-03-07T13:46:37;7.30;;;4.45;;
57047;SDS011;42934;54.294;18.598;2024-03-07T13:49:07;7.20;;;4.60;;
57047;SDS011;42934;54.294;18.598;2024-03-07T13:51:40;12.55;;;4.75;;
57047;SDS011;42934;54.294;18.598;2024-03-07T13:54:18;10.93;;;5.25;;
57047;SDS011;42934;54.294;18.598;2024-03-07T13:57:01;13.55;;;4.93;;
57047;SDS011;42934;54.294;18.598;2024-03-07T13:59:54;9.10;;;5.03;;
57047;SDS011;42934;54.294;18.598;2024-03-07T14:02:52;8.38;;;4.35;;
57047;SDS011;42934;54.294;18.598;2024-03-07T14:05:52;13.65;;;5.35;;
57047;SDS011;42934;54.294;18.598;2024-03-07T14:08:34;10.13;;;5.07;;
57047;SDS011;42934;54.294;18.598;2024-03-07T14:18:21;26.75;;;9.18;;
57047;SDS011;42934;54.294;18.598;2024-03-07T14:25:03;9.07;;;4.93;;
57047;SDS011;42934;54.294;18.598;2024-03-07T14:27:56;8.25;;;3.92;;
57047;SDS011;42934;54.294;18.598;2024-03-07T14:30:41;17.10;;;6.13;;
57047;SDS011;42934;54.294;18.598;2024-03-07T14:35:59;11.20;;;5.43;;
57047;SDS011;42934;54.294;18.598;2024-03-07T14:38:40;17.00;;;7.43;;
57047;SDS011;42934;54.294;18.598;2024-03-07T14:41:16;14.32;;;6.43;;
57047;SDS011;42934;54.294;18.598;2024-03-07T14:43:49;11.57;;;5.82;;
57047;SDS011;42934;54.294;18.598;2024-03-07T14:46:19;15.05;;;6.55;;
57047;SDS011;42934;54.294;18.598;2024-03-07T14:48:50;16.35;;;8.02;;
57047;SDS011;42934;54.294;18.598;2024-03-07T14:51:19;11.05;;;6.82;;
57047;SDS011;42934;54.294;18.598;2024-03-07T14:53:49;16.93;;;10.87;;
57047;SDS011;42934;54.294;18.598;2024-03-07T14:56:18;15.43;;;6.93;;
57047;SDS011;42934;54.294;18.598;2024-03-07T14:58:47;15.10;;;6.72;;
57047;SDS011;42934;54.294;18.598;2024-03-07T15:01:16;13.07;;;6.15;;
57047;SDS011;42934;54.294;18.598;2024-03-07T15:03:45;12.15;;;6.60;;
57047;SDS011;42934;54.294;18.598;2024-03-07T15:06:16;13.07;;;6.05;;
57047;SDS011;42934;54.294;18.598;2024-03-07T15:08:47;10.63;;;5.68;;
57047;SDS011;42934;54.294;18.598;2024-03-07T15:11:19;9.82;;;5.45;;
57047;SDS011;42934;54.294;18.598;2024-03-07T15:13:53;12.75;;;6.22;;
57047;SDS011;42934;54.294;18.598;2024-03-07T15:16:22;13.48;;;5.63;;
57047;SDS011;42934;54.294;18.598;2024-03-07T15:19:02;10.18;;;5.93;;
57047;SDS011;42934;54.294;18.598;2024-03-07T15:21:33;9.07;;;5.28;;